メインページ
METAR-TAF:

METAR-TAF

空港 :

ブジュンブラ国際空港

ブジュンブラ, ブルンジ

緯度: 03-19S, 経度: 029-19E, 海抜: 782m

現時点の気象観測

当レポートは3時間19分前の10:00(UTC)に作成
の風 20kt
気温
気圧 1013 hPa
視程10km以上
高度3000ftの雲はほとんどない, 塔状積雲.

METAR: HBBA 211000Z 18020KT 9999 FEW030TCU BKN10031/20 Q1013 NOSIG

時間: 15:19 (13:19 UTC)

予報

当レポートは8時間19分前の05:00(UTC)に作成
予報は21日の 06時(UTC)から 22日の 12時(UTC)まで有効
の風 2kt
視程10km以上
高度2500ftの雲はほとんどない
高度10000ftの雲は散在している
21日の 07時(UTC)から 21日の 09時(UTC)まで徐々に
の風 10kt、最大20ktの突風を伴う
視程10km以上
高度2500ftの雲はほとんどない
高度3000ftの雲はほとんどない, 積乱雲.
高度10000ftの千切れ雲あり
確率 %
間 30から UTC
21日の 12時(UTC)から 21日の 18時(UTC)まで一時的に
の風 15kt、最大25ktの突風を伴う
視程: 6000m
高度2500ftの雲は散在している, 積乱雲.
高度10000ftの千切れ雲あり
激しい雷雨, 雨, にわか雨
21日の 18時(UTC)から 21日の 20時(UTC)まで徐々に
の風 kt
視程10km以上
1,500メートル以下は雲なし、積乱雲なし
22日の 02時(UTC)から 22日の 04時(UTC)まで徐々に
の風 3kt
視程10km以上
高度2500ftの雲はほとんどない
高度10000ftの雲は散在している
22日の 07時(UTC)から 22日の 09時(UTC)まで徐々に
の風 10kt、最大20ktの突風を伴う
視程10km以上
高度2500ftの雲はほとんどない
高度10000ftの雲は散在している

TAF: HBBA 210500Z 2106/2212 36002KT 9999 FEW025 SCT100 BECMG 2107/2109 18010G20KT 9999 FEW025 FEW030CB BKN100 PROB 30 TEMPO 2112/2118 08015G25KT 6000 TSRA OR SHRA SCT025CB BKN100 BECMG 2118/2120 00000KT CAVOK BECMG 2202/2204 36003KT 9999 FEW025 SCT100 BECMG 2207/2209 18010G20KT 9999 FEW025 SCT100

4,000以上の空港の気象観測と天気予報(METAR報とTAF報)

利用可能な観測所は地図上に黄色い丸と赤い丸で示す。

丸の上にカーソルを重ねると観測所名を参照できる。

次にクリックすると気象観測と天気予報を参照できる。

マップの切り替え:黒色「×」印の緑ボタンをクリックして拡大、「-」印の緑ボタンをクリックして縮小、緑色の三角印をクリックして隣りの地図に切り替え


METAR-TAF: